sensor_id;sensor_type;location;lat;lon;timestamp;P1;durP1;ratioP1;P2;durP2;ratioP2
28682;SDS011;15862;43.062;25.626;2022-08-04T00:00:28;3.80;;;3.00;;
28682;SDS011;15862;43.062;25.626;2022-08-04T00:08:47;5.28;;;3.20;;
28682;SDS011;15862;43.062;25.626;2022-08-04T00:11:14;3.78;;;3.42;;
28682;SDS011;15862;43.062;25.626;2022-08-04T00:13:48;4.18;;;3.60;;
28682;SDS011;15862;43.062;25.626;2022-08-04T00:16:29;3.85;;;3.53;;
28682;SDS011;15862;43.062;25.626;2022-08-04T00:19:03;3.78;;;3.40;;
28682;SDS011;15862;43.062;25.626;2022-08-04T00:21:35;5.80;;;3.50;;
28682;SDS011;15862;43.062;25.626;2022-08-04T00:24:03;7.47;;;3.70;;
28682;SDS011;15862;43.062;25.626;2022-08-04T00:26:29;4.30;;;3.70;;
28682;SDS011;15862;43.062;25.626;2022-08-04T00:28:57;11.80;;;4.30;;
28682;SDS011;15862;43.062;25.626;2022-08-04T00:31:22;6.45;;;3.95;;
28682;SDS011;15862;43.062;25.626;2022-08-04T00:33:50;17.02;;;5.72;;
28682;SDS011;15862;43.062;25.626;2022-08-04T00:36:16;6.95;;;3.78;;
28682;SDS011;15862;43.062;25.626;2022-08-04T00:38:42;6.35;;;4.00;;
28682;SDS011;15862;43.062;25.626;2022-08-04T00:52:09;7.78;;;4.20;;
28682;SDS011;15862;43.062;25.626;2022-08-04T01:00:51;5.45;;;3.92;;
28682;SDS011;15862;43.062;25.626;2022-08-04T01:18:26;6.45;;;5.07;;
28682;SDS011;15862;43.062;25.626;2022-08-04T01:20:26;6.35;;;4.43;;
28682;SDS011;15862;43.062;25.626;2022-08-04T01:31:38;7.80;;;5.05;;
28682;SDS011;15862;43.062;25.626;2022-08-04T01:34:18;6.25;;;5.00;;
28682;SDS011;15862;43.062;25.626;2022-08-04T01:36:46;12.35;;;5.28;;
28682;SDS011;15862;43.062;25.626;2022-08-04T01:39:21;8.73;;;6.15;;
28682;SDS011;15862;43.062;25.626;2022-08-04T01:42:05;7.65;;;5.03;;
28682;SDS011;15862;43.062;25.626;2022-08-04T01:44:31;6.47;;;5.50;;
28682;SDS011;15862;43.062;25.626;2022-08-04T01:46:59;7.40;;;5.75;;
28682;SDS011;15862;43.062;25.626;2022-08-04T01:49:29;8.48;;;5.30;;
28682;SDS011;15862;43.062;25.626;2022-08-04T01:51:56;8.30;;;4.95;;
28682;SDS011;15862;43.062;25.626;2022-08-04T01:54:23;10.07;;;4.70;;
28682;SDS011;15862;43.062;25.626;2022-08-04T01:56:50;10.00;;;5.05;;
28682;SDS011;15862;43.062;25.626;2022-08-04T01:59:18;8.52;;;5.32;;
28682;SDS011;15862;43.062;25.626;2022-08-04T02:01:45;7.78;;;4.88;;
28682;SDS011;15862;43.062;25.626;2022-08-04T02:04:18;6.55;;;5.03;;
28682;SDS011;15862;43.062;25.626;2022-08-04T02:15:10;6.57;;;5.13;;
28682;SDS011;15862;43.062;25.626;2022-08-04T02:17:49;9.60;;;5.95;;
28682;SDS011;15862;43.062;25.626;2022-08-04T02:20:24;6.75;;;6.00;;
28682;SDS011;15862;43.062;25.626;2022-08-04T02:25:25;6.82;;;6.22;;
28682;SDS011;15862;43.062;25.626;2022-08-04T02:30:42;19.40;;;7.80;;
28682;SDS011;15862;43.062;25.626;2022-08-04T02:33:18;8.40;;;6.50;;
28682;SDS011;15862;43.062;25.626;2022-08-04T02:35:50;15.20;;;6.47;;
28682;SDS011;15862;43.062;25.626;2022-08-04T02:41:14;14.10;;;6.38;;
28682;SDS011;15862;43.062;25.626;2022-08-04T02:43:42;16.85;;;7.45;;
28682;SDS011;15862;43.062;25.626;2022-08-04T02:46:12;9.73;;;6.25;;
28682;SDS011;15862;43.062;25.626;2022-08-04T02:48:40;16.13;;;8.05;;
28682;SDS011;15862;43.062;25.626;2022-08-04T02:51:10;26.90;;;8.63;;
28682;SDS011;15862;43.062;25.626;2022-08-04T02:53:38;7.93;;;6.50;;
28682;SDS011;15862;43.062;25.626;2022-08-04T02:56:06;13.52;;;6.68;;
28682;SDS011;15862;43.062;25.626;2022-08-04T02:58:33;12.10;;;6.10;;
28682;SDS011;15862;43.062;25.626;2022-08-04T03:01:00;12.25;;;6.10;;
28682;SDS011;15862;43.062;25.626;2022-08-04T03:11:50;14.52;;;5.68;;
28682;SDS011;15862;43.062;25.626;2022-08-04T03:28:43;16.45;;;6.47;;
28682;SDS011;15862;43.062;25.626;2022-08-04T03:37:10;16.13;;;5.90;;
28682;SDS011;15862;43.062;25.626;2022-08-04T03:45:17;8.00;;;6.13;;
28682;SDS011;15862;43.062;25.626;2022-08-04T03:50:40;11.63;;;5.60;;
28682;SDS011;15862;43.062;25.626;2022-08-04T03:56:17;15.23;;;7.13;;
28682;SDS011;15862;43.062;25.626;2022-08-04T04:06:48;17.30;;;7.80;;
28682;SDS011;15862;43.062;25.626;2022-08-04T04:20:56;14.25;;;6.60;;
28682;SDS011;15862;43.062;25.626;2022-08-04T04:47:30;47.47;;;26.02;;
28682;SDS011;15862;43.062;25.626;2022-08-04T04:55:23;78.35;;;49.17;;
28682;SDS011;15862;43.062;25.626;2022-08-04T04:57:52;82.28;;;50.08;;
28682;SDS011;15862;43.062;25.626;2022-08-04T05:00:21;102.55;;;44.50;;
28682;SDS011;15862;43.062;25.626;2022-08-04T05:08:22;81.60;;;42.00;;
28682;SDS011;15862;43.062;25.626;2022-08-04T05:24:48;107.43;;;34.13;;
28682;SDS011;15862;43.062;25.626;2022-08-04T05:27:30;49.22;;;33.08;;
28682;SDS011;15862;43.062;25.626;2022-08-04T05:30:09;48.85;;;32.67;;
28682;SDS011;15862;43.062;25.626;2022-08-04T05:35:09;44.63;;;31.27;;
28682;SDS011;15862;43.062;25.626;2022-08-04T05:37:39;43.25;;;30.38;;
28682;SDS011;15862;43.062;25.626;2022-08-04T05:40:08;71.60;;;33.53;;
28682;SDS011;15862;43.062;25.626;2022-08-04T05:42:36;31.67;;;22.58;;
28682;SDS011;15862;43.062;25.626;2022-08-04T05:45:04;35.88;;;24.40;;
28682;SDS011;15862;43.062;25.626;2022-08-04T05:47:32;29.08;;;21.77;;
28682;SDS011;15862;43.062;25.626;2022-08-04T05:50:03;37.70;;;22.35;;
28682;SDS011;15862;43.062;25.626;2022-08-04T05:52:30;33.33;;;21.73;;
28682;SDS011;15862;43.062;25.626;2022-08-04T05:54:59;30.90;;;18.58;;
28682;SDS011;15862;43.062;25.626;2022-08-04T05:57:26;26.17;;;18.50;;
28682;SDS011;15862;43.062;25.626;2022-08-04T05:59:54;36.15;;;19.05;;
28682;SDS011;15862;43.062;25.626;2022-08-04T06:02:21;27.52;;;16.95;;
28682;SDS011;15862;43.062;25.626;2022-08-04T06:04:49;28.65;;;16.20;;
28682;SDS011;15862;43.062;25.626;2022-08-04T06:07:16;23.42;;;15.05;;
28682;SDS011;15862;43.062;25.626;2022-08-04T06:09:42;24.83;;;14.43;;
28682;SDS011;15862;43.062;25.626;2022-08-04T06:12:16;65.90;;;16.30;;
28682;SDS011;15862;43.062;25.626;2022-08-04T06:14:46;12.95;;;10.15;;
28682;SDS011;15862;43.062;25.626;2022-08-04T06:17:22;18.27;;;10.65;;
28682;SDS011;15862;43.062;25.626;2022-08-04T06:19:51;20.60;;;11.07;;
28682;SDS011;15862;43.062;25.626;2022-08-04T06:22:18;56.42;;;15.05;;
28682;SDS011;15862;43.062;25.626;2022-08-04T06:24:47;13.50;;;9.80;;
28682;SDS011;15862;43.062;25.626;2022-08-04T06:27:16;13.57;;;8.63;;
28682;SDS011;15862;43.062;25.626;2022-08-04T06:29:43;18.90;;;9.23;;
28682;SDS011;15862;43.062;25.626;2022-08-04T06:32:09;22.08;;;11.35;;
28682;SDS011;15862;43.062;25.626;2022-08-04T06:34:55;29.27;;;10.45;;
28682;SDS011;15862;43.062;25.626;2022-08-04T06:37:23;20.73;;;8.63;;
28682;SDS011;15862;43.062;25.626;2022-08-04T06:39:50;11.88;;;7.32;;
28682;SDS011;15862;43.062;25.626;2022-08-04T06:42:17;15.02;;;5.90;;
28682;SDS011;15862;43.062;25.626;2022-08-04T06:44:47;16.17;;;6.05;;
28682;SDS011;15862;43.062;25.626;2022-08-04T06:47:16;9.27;;;5.57;;
28682;SDS011;15862;43.062;25.626;2022-08-04T06:49:44;8.48;;;5.43;;
28682;SDS011;15862;43.062;25.626;2022-08-04T06:52:12;7.97;;;4.30;;
28682;SDS011;15862;43.062;25.626;2022-08-04T06:54:51;8.20;;;5.00;;
28682;SDS011;15862;43.062;25.626;2022-08-04T06:57:18;5.10;;;3.83;;
28682;SDS011;15862;43.062;25.626;2022-08-04T06:59:48;15.48;;;4.70;;
28682;SDS011;15862;43.062;25.626;2022-08-04T07:02:26;11.63;;;4.85;;
28682;SDS011;15862;43.062;25.626;2022-08-04T07:04:54;10.32;;;4.75;;
28682;SDS011;15862;43.062;25.626;2022-08-04T07:07:22;4.55;;;2.80;;
28682;SDS011;15862;43.062;25.626;2022-08-04T07:09:48;4.32;;;2.88;;
28682;SDS011;15862;43.062;25.626;2022-08-04T07:12:14;13.63;;;2.63;;
28682;SDS011;15862;43.062;25.626;2022-08-04T07:14:45;3.97;;;2.42;;
28682;SDS011;15862;43.062;25.626;2022-08-04T07:17:12;4.57;;;2.25;;
28682;SDS011;15862;43.062;25.626;2022-08-04T07:19:42;7.60;;;2.13;;
28682;SDS011;15862;43.062;25.626;2022-08-04T07:22:10;8.65;;;1.90;;
28682;SDS011;15862;43.062;25.626;2022-08-04T07:24:36;3.65;;;2.00;;
28682;SDS011;15862;43.062;25.626;2022-08-04T07:27:03;12.55;;;2.47;;
28682;SDS011;15862;43.062;25.626;2022-08-04T07:29:29;9.88;;;2.95;;
28682;SDS011;15862;43.062;25.626;2022-08-04T07:31:56;12.60;;;3.35;;
28682;SDS011;15862;43.062;25.626;2022-08-04T07:34:23;3.10;;;1.63;;
28682;SDS011;15862;43.062;25.626;2022-08-04T07:36:51;1.95;;;1.55;;
28682;SDS011;15862;43.062;25.626;2022-08-04T07:39:18;3.80;;;2.00;;
28682;SDS011;15862;43.062;25.626;2022-08-04T07:41:45;2.97;;;1.80;;
28682;SDS011;15862;43.062;25.626;2022-08-04T07:44:14;6.03;;;2.03;;
28682;SDS011;15862;43.062;25.626;2022-08-04T07:46:40;9.23;;;2.13;;
28682;SDS011;15862;43.062;25.626;2022-08-04T07:49:07;3.00;;;1.50;;
28682;SDS011;15862;43.062;25.626;2022-08-04T07:51:34;2.53;;;1.55;;
28682;SDS011;15862;43.062;25.626;2022-08-04T07:57:06;5.97;;;1.48;;
28682;SDS011;15862;43.062;25.626;2022-08-04T07:59:47;3.35;;;2.80;;
28682;SDS011;15862;43.062;25.626;2022-08-04T08:02:15;1.67;;;1.58;;
28682;SDS011;15862;43.062;25.626;2022-08-04T08:04:53;3.38;;;1.80;;
28682;SDS011;15862;43.062;25.626;2022-08-04T08:07:20;7.25;;;1.73;;
28682;SDS011;15862;43.062;25.626;2022-08-04T08:09:45;4.25;;;1.63;;
28682;SDS011;15862;43.062;25.626;2022-08-04T08:12:11;1.80;;;1.52;;
28682;SDS011;15862;43.062;25.626;2022-08-04T08:14:38;4.40;;;1.50;;
28682;SDS011;15862;43.062;25.626;2022-08-04T08:17:04;3.72;;;1.55;;
28682;SDS011;15862;43.062;25.626;2022-08-04T08:19:30;3.03;;;1.77;;
28682;SDS011;15862;43.062;25.626;2022-08-04T08:21:56;4.60;;;1.40;;
28682;SDS011;15862;43.062;25.626;2022-08-04T08:24:28;2.97;;;1.80;;
28682;SDS011;15862;43.062;25.626;2022-08-04T08:26:55;6.95;;;1.73;;
28682;SDS011;15862;43.062;25.626;2022-08-04T08:29:21;2.70;;;1.55;;
28682;SDS011;15862;43.062;25.626;2022-08-04T08:31:47;7.82;;;1.63;;
28682;SDS011;15862;43.062;25.626;2022-08-04T08:34:13;3.40;;;1.67;;
28682;SDS011;15862;43.062;25.626;2022-08-04T08:36:52;1.73;;;1.63;;
28682;SDS011;15862;43.062;25.626;2022-08-04T08:39:53;2.08;;;1.65;;
28682;SDS011;15862;43.062;25.626;2022-08-04T08:45:12;3.60;;;2.00;;
28682;SDS011;15862;43.062;25.626;2022-08-04T08:50:30;1.90;;;1.50;;
28682;SDS011;15862;43.062;25.626;2022-08-04T09:12:56;2.28;;;1.38;;
28682;SDS011;15862;43.062;25.626;2022-08-04T09:23:45;1.40;;;1.30;;
28682;SDS011;15862;43.062;25.626;2022-08-04T09:29:19;2.80;;;1.20;;
28682;SDS011;15862;43.062;25.626;2022-08-04T09:31:58;1.38;;;1.25;;
28682;SDS011;15862;43.062;25.626;2022-08-04T09:37:28;2.47;;;1.20;;
28682;SDS011;15862;43.062;25.626;2022-08-04T09:40:07;1.55;;;1.40;;
28682;SDS011;15862;43.062;25.626;2022-08-04T09:48:24;2.15;;;1.80;;
28682;SDS011;15862;43.062;25.626;2022-08-04T09:50:57;1.70;;;1.60;;
28682;SDS011;15862;43.062;25.626;2022-08-04T09:59:23;3.42;;;1.63;;
28682;SDS011;15862;43.062;25.626;2022-08-04T10:01:54;1.77;;;1.67;;
28682;SDS011;15862;43.062;25.626;2022-08-04T10:04:23;3.03;;;1.88;;
28682;SDS011;15862;43.062;25.626;2022-08-04T10:07:03;1.65;;;1.40;;
28682;SDS011;15862;43.062;25.626;2022-08-04T10:09:49;3.40;;;1.60;;
28682;SDS011;15862;43.062;25.626;2022-08-04T10:18:43;2.80;;;1.75;;
28682;SDS011;15862;43.062;25.626;2022-08-04T10:26:48;1.60;;;1.50;;
28682;SDS011;15862;43.062;25.626;2022-08-04T10:29:17;3.40;;;1.75;;
28682;SDS011;15862;43.062;25.626;2022-08-04T10:31:53;1.90;;;1.52;;
28682;SDS011;15862;43.062;25.626;2022-08-04T10:34:25;1.63;;;1.52;;
28682;SDS011;15862;43.062;25.626;2022-08-04T10:37:02;2.00;;;1.90;;
28682;SDS011;15862;43.062;25.626;2022-08-04T10:42:36;1.80;;;1.70;;
28682;SDS011;15862;43.062;25.626;2022-08-04T10:47:48;5.80;;;2.50;;
28682;SDS011;15862;43.062;25.626;2022-08-04T10:50:18;6.43;;;1.70;;
28682;SDS011;15862;43.062;25.626;2022-08-04T10:52:52;4.18;;;1.98;;
28682;SDS011;15862;43.062;25.626;2022-08-04T10:55:40;1.48;;;1.38;;
28682;SDS011;15862;43.062;25.626;2022-08-04T10:58:15;4.63;;;1.70;;
28682;SDS011;15862;43.062;25.626;2022-08-04T11:00:44;9.18;;;2.50;;
28682;SDS011;15862;43.062;25.626;2022-08-04T11:03:29;21.80;;;4.28;;
28682;SDS011;15862;43.062;25.626;2022-08-04T11:06:04;2.15;;;1.73;;
28682;SDS011;15862;43.062;25.626;2022-08-04T11:11:55;2.25;;;1.80;;
28682;SDS011;15862;43.062;25.626;2022-08-04T11:14:30;2.63;;;1.27;;
28682;SDS011;15862;43.062;25.626;2022-08-04T11:17:04;2.80;;;1.33;;
28682;SDS011;15862;43.062;25.626;2022-08-04T11:19:47;1.63;;;1.52;;
28682;SDS011;15862;43.062;25.626;2022-08-04T11:24:51;1.40;;;1.30;;
28682;SDS011;15862;43.062;25.626;2022-08-04T11:27:32;1.95;;;1.42;;
28682;SDS011;15862;43.062;25.626;2022-08-04T11:30:06;2.38;;;1.52;;
28682;SDS011;15862;43.062;25.626;2022-08-04T11:32:40;4.20;;;1.80;;
28682;SDS011;15862;43.062;25.626;2022-08-04T11:35:11;11.38;;;1.58;;
28682;SDS011;15862;43.062;25.626;2022-08-04T11:38:05;2.47;;;1.10;;
28682;SDS011;15862;43.062;25.626;2022-08-04T11:40:42;1.67;;;1.30;;
28682;SDS011;15862;43.062;25.626;2022-08-04T11:45:41;1.50;;;1.40;;
28682;SDS011;15862;43.062;25.626;2022-08-04T11:48:16;1.55;;;1.42;;
28682;SDS011;15862;43.062;25.626;2022-08-04T11:53:24;1.63;;;1.50;;
28682;SDS011;15862;43.062;25.626;2022-08-04T11:55:53;1.48;;;1.38;;
28682;SDS011;15862;43.062;25.626;2022-08-04T12:04:56;2.97;;;1.40;;
28682;SDS011;15862;43.062;25.626;2022-08-04T12:13:34;6.60;;;2.35;;
28682;SDS011;15862;43.062;25.626;2022-08-04T12:21:38;2.65;;;1.60;;
28682;SDS011;15862;43.062;25.626;2022-08-04T12:24:13;1.83;;;1.73;;
28682;SDS011;15862;43.062;25.626;2022-08-04T12:26:42;2.75;;;1.90;;
28682;SDS011;15862;43.062;25.626;2022-08-04T12:29:17;2.13;;;2.00;;
28682;SDS011;15862;43.062;25.626;2022-08-04T12:34:24;2.05;;;1.60;;
28682;SDS011;15862;43.062;25.626;2022-08-04T12:39:34;1.38;;;1.30;;
28682;SDS011;15862;43.062;25.626;2022-08-04T12:45:07;11.52;;;1.98;;
28682;SDS011;15862;43.062;25.626;2022-08-04T12:47:35;1.50;;;1.30;;
28682;SDS011;15862;43.062;25.626;2022-08-04T12:50:02;2.13;;;1.20;;
28682;SDS011;15862;43.062;25.626;2022-08-04T12:52:29;1.67;;;1.58;;
28682;SDS011;15862;43.062;25.626;2022-08-04T12:54:57;1.73;;;1.63;;
28682;SDS011;15862;43.062;25.626;2022-08-04T12:57:23;2.53;;;1.52;;
28682;SDS011;15862;43.062;25.626;2022-08-04T12:59:51;2.30;;;2.13;;
28682;SDS011;15862;43.062;25.626;2022-08-04T13:04:47;1.55;;;1.45;;
28682;SDS011;15862;43.062;25.626;2022-08-04T13:07:15;2.72;;;1.63;;
28682;SDS011;15862;43.062;25.626;2022-08-04T13:09:45;1.73;;;1.63;;
28682;SDS011;15862;43.062;25.626;2022-08-04T13:12:16;2.00;;;1.90;;
28682;SDS011;15862;43.062;25.626;2022-08-04T13:14:46;2.20;;;1.70;;
28682;SDS011;15862;43.062;25.626;2022-08-04T13:17:14;2.00;;;1.60;;
28682;SDS011;15862;43.062;25.626;2022-08-04T13:19:45;1.38;;;1.27;;
28682;SDS011;15862;43.062;25.626;2022-08-04T13:22:11;2.83;;;1.70;;
28682;SDS011;15862;43.062;25.626;2022-08-04T13:24:40;2.13;;;1.60;;
28682;SDS011;15862;43.062;25.626;2022-08-04T13:27:09;3.80;;;1.50;;
28682;SDS011;15862;43.062;25.626;2022-08-04T13:29:38;1.55;;;1.13;;
28682;SDS011;15862;43.062;25.626;2022-08-04T13:32:05;1.73;;;1.50;;
28682;SDS011;15862;43.062;25.626;2022-08-04T13:34:33;3.90;;;1.90;;
28682;SDS011;15862;43.062;25.626;2022-08-04T13:37:00;3.63;;;1.80;;
28682;SDS011;15862;43.062;25.626;2022-08-04T13:39:26;2.80;;;1.92;;
28682;SDS011;15862;43.062;25.626;2022-08-04T13:41:54;1.73;;;1.63;;
28682;SDS011;15862;43.062;25.626;2022-08-04T13:44:24;4.10;;;1.70;;
28682;SDS011;15862;43.062;25.626;2022-08-04T13:46:56;1.70;;;1.60;;
28682;SDS011;15862;43.062;25.626;2022-08-04T13:49:24;1.70;;;1.60;;
28682;SDS011;15862;43.062;25.626;2022-08-04T13:52:23;2.58;;;1.77;;
28682;SDS011;15862;43.062;25.626;2022-08-04T13:54:43;4.32;;;1.95;;
28682;SDS011;15862;43.062;25.626;2022-08-04T13:57:21;2.53;;;1.50;;
28682;SDS011;15862;43.062;25.626;2022-08-04T13:59:52;4.15;;;2.22;;
28682;SDS011;15862;43.062;25.626;2022-08-04T14:04:54;1.88;;;1.65;;
28682;SDS011;15862;43.062;25.626;2022-08-04T14:07:25;4.80;;;1.88;;
28682;SDS011;15862;43.062;25.626;2022-08-04T14:09:53;4.18;;;1.67;;
28682;SDS011;15862;43.062;25.626;2022-08-04T14:12:18;2.20;;;2.00;;
28682;SDS011;15862;43.062;25.626;2022-08-04T14:14:54;3.97;;;2.22;;
28682;SDS011;15862;43.062;25.626;2022-08-04T14:17:23;3.97;;;1.73;;
28682;SDS011;15862;43.062;25.626;2022-08-04T14:22:46;2.00;;;1.90;;
28682;SDS011;15862;43.062;25.626;2022-08-04T14:25:15;2.85;;;1.75;;
28682;SDS011;15862;43.062;25.626;2022-08-04T14:31:09;5.10;;;2.00;;
28682;SDS011;15862;43.062;25.626;2022-08-04T14:33:46;1.77;;;1.67;;
28682;SDS011;15862;43.062;25.626;2022-08-04T14:36:13;3.15;;;1.77;;
28682;SDS011;15862;43.062;25.626;2022-08-04T14:39:06;5.03;;;1.70;;
28682;SDS011;15862;43.062;25.626;2022-08-04T14:41:55;1.90;;;1.80;;
28682;SDS011;15862;43.062;25.626;2022-08-04T14:44:20;2.20;;;1.73;;
28682;SDS011;15862;43.062;25.626;2022-08-04T14:49:32;2.53;;;2.10;;
28682;SDS011;15862;43.062;25.626;2022-08-04T14:51:59;3.75;;;2.15;;
28682;SDS011;15862;43.062;25.626;2022-08-04T15:00:10;1.60;;;1.50;;
28682;SDS011;15862;43.062;25.626;2022-08-04T15:02:37;2.05;;;1.80;;
28682;SDS011;15862;43.062;25.626;2022-08-04T15:05:06;1.83;;;1.73;;
28682;SDS011;15862;43.062;25.626;2022-08-04T15:07:41;2.20;;;2.03;;
28682;SDS011;15862;43.062;25.626;2022-08-04T15:10:09;1.75;;;1.65;;
28682;SDS011;15862;43.062;25.626;2022-08-04T15:12:34;1.85;;;1.70;;
28682;SDS011;15862;43.062;25.626;2022-08-04T15:15:00;2.72;;;1.90;;
28682;SDS011;15862;43.062;25.626;2022-08-04T15:17:29;5.78;;;1.92;;
28682;SDS011;15862;43.062;25.626;2022-08-04T15:19:58;3.40;;;1.95;;
28682;SDS011;15862;43.062;25.626;2022-08-04T15:22:26;2.85;;;1.73;;
28682;SDS011;15862;43.062;25.626;2022-08-04T15:24:59;1.90;;;1.77;;
28682;SDS011;15862;43.062;25.626;2022-08-04T15:27:28;3.38;;;1.90;;
28682;SDS011;15862;43.062;25.626;2022-08-04T15:30:14;2.33;;;2.10;;
28682;SDS011;15862;43.062;25.626;2022-08-04T15:32:49;2.15;;;2.00;;
28682;SDS011;15862;43.062;25.626;2022-08-04T15:35:23;2.55;;;2.08;;
28682;SDS011;15862;43.062;25.626;2022-08-04T15:40:21;2.15;;;1.67;;
28682;SDS011;15862;43.062;25.626;2022-08-04T15:45:48;2.17;;;2.08;;
28682;SDS011;15862;43.062;25.626;2022-08-04T15:53:30;2.05;;;1.85;;
28682;SDS011;15862;43.062;25.626;2022-08-04T15:58:50;4.88;;;2.30;;
28682;SDS011;15862;43.062;25.626;2022-08-04T16:01:17;4.90;;;1.85;;
28682;SDS011;15862;43.062;25.626;2022-08-04T16:03:46;3.15;;;1.88;;
28682;SDS011;15862;43.062;25.626;2022-08-04T16:16:55;2.65;;;1.70;;
28682;SDS011;15862;43.062;25.626;2022-08-04T16:21:56;3.45;;;1.90;;
28682;SDS011;15862;43.062;25.626;2022-08-04T16:24:27;1.83;;;1.60;;
28682;SDS011;15862;43.062;25.626;2022-08-04T16:27:00;3.85;;;1.52;;
28682;SDS011;15862;43.062;25.626;2022-08-04T16:29:31;7.30;;;2.35;;
28682;SDS011;15862;43.062;25.626;2022-08-04T16:36:59;3.97;;;1.70;;
28682;SDS011;15862;43.062;25.626;2022-08-04T16:39:26;1.88;;;1.75;;
28682;SDS011;15862;43.062;25.626;2022-08-04T16:41:52;1.63;;;1.52;;
28682;SDS011;15862;43.062;25.626;2022-08-04T16:44:28;1.67;;;1.58;;
28682;SDS011;15862;43.062;25.626;2022-08-04T16:46:59;2.28;;;1.92;;
28682;SDS011;15862;43.062;25.626;2022-08-04T16:49:26;1.92;;;1.60;;
28682;SDS011;15862;43.062;25.626;2022-08-04T16:51:53;4.35;;;1.80;;
28682;SDS011;15862;43.062;25.626;2022-08-04T16:54:27;3.97;;;1.77;;
28682;SDS011;15862;43.062;25.626;2022-08-04T16:56:54;2.60;;;1.65;;
28682;SDS011;15862;43.062;25.626;2022-08-04T16:59:20;1.85;;;1.75;;
28682;SDS011;15862;43.062;25.626;2022-08-04T17:01:47;2.30;;;2.10;;
28682;SDS011;15862;43.062;25.626;2022-08-04T17:04:14;2.65;;;1.88;;
28682;SDS011;15862;43.062;25.626;2022-08-04T17:06:41;5.75;;;2.00;;
28682;SDS011;15862;43.062;25.626;2022-08-04T17:09:12;6.47;;;2.22;;
28682;SDS011;15862;43.062;25.626;2022-08-04T17:11:42;3.78;;;1.95;;
28682;SDS011;15862;43.062;25.626;2022-08-04T17:14:09;12.23;;;2.55;;
28682;SDS011;15862;43.062;25.626;2022-08-04T17:16:40;3.42;;;2.10;;
28682;SDS011;15862;43.062;25.626;2022-08-04T17:19:07;2.20;;;2.00;;
28682;SDS011;15862;43.062;25.626;2022-08-04T17:21:34;12.70;;;3.25;;
28682;SDS011;15862;43.062;25.626;2022-08-04T17:24:01;2.58;;;2.20;;
28682;SDS011;15862;43.062;25.626;2022-08-04T17:26:29;4.00;;;1.90;;
28682;SDS011;15862;43.062;25.626;2022-08-04T17:28:57;4.55;;;2.45;;
28682;SDS011;15862;43.062;25.626;2022-08-04T17:31:25;5.60;;;2.60;;
28682;SDS011;15862;43.062;25.626;2022-08-04T17:33:53;7.75;;;2.40;;
28682;SDS011;15862;43.062;25.626;2022-08-04T17:36:24;6.53;;;2.63;;
28682;SDS011;15862;43.062;25.626;2022-08-04T17:38:52;4.45;;;2.28;;
28682;SDS011;15862;43.062;25.626;2022-08-04T17:41:20;9.35;;;2.78;;
28682;SDS011;15862;43.062;25.626;2022-08-04T17:43:54;5.70;;;2.47;;
28682;SDS011;15862;43.062;25.626;2022-08-04T17:46:22;9.13;;;2.58;;
28682;SDS011;15862;43.062;25.626;2022-08-04T17:51:20;6.80;;;2.42;;
28682;SDS011;15862;43.062;25.626;2022-08-04T17:53:49;9.43;;;2.22;;
28682;SDS011;15862;43.062;25.626;2022-08-04T17:56:31;7.40;;;2.42;;
28682;SDS011;15862;43.062;25.626;2022-08-04T18:07:06;12.27;;;2.85;;
28682;SDS011;15862;43.062;25.626;2022-08-04T18:09:35;7.38;;;3.17;;
28682;SDS011;15862;43.062;25.626;2022-08-04T18:14:57;6.93;;;2.95;;
28682;SDS011;15862;43.062;25.626;2022-08-04T18:17:43;15.15;;;3.75;;
28682;SDS011;15862;43.062;25.626;2022-08-04T18:20:13;8.70;;;3.20;;
28682;SDS011;15862;43.062;25.626;2022-08-04T18:22:41;9.35;;;2.28;;
28682;SDS011;15862;43.062;25.626;2022-08-04T18:25:07;6.75;;;2.60;;
28682;SDS011;15862;43.062;25.626;2022-08-04T18:27:34;6.15;;;2.47;;
28682;SDS011;15862;43.062;25.626;2022-08-04T18:30:14;6.03;;;2.75;;
28682;SDS011;15862;43.062;25.626;2022-08-04T18:32:40;4.05;;;2.55;;
28682;SDS011;15862;43.062;25.626;2022-08-04T18:35:05;6.45;;;2.85;;
28682;SDS011;15862;43.062;25.626;2022-08-04T18:37:31;4.43;;;2.80;;
28682;SDS011;15862;43.062;25.626;2022-08-04T18:39:57;6.45;;;2.60;;
28682;SDS011;15862;43.062;25.626;2022-08-04T18:42:22;9.90;;;2.65;;
28682;SDS011;15862;43.062;25.626;2022-08-04T18:44:49;4.45;;;2.08;;
28682;SDS011;15862;43.062;25.626;2022-08-04T18:47:15;6.70;;;2.63;;
28682;SDS011;15862;43.062;25.626;2022-08-04T18:49:40;4.65;;;2.95;;
28682;SDS011;15862;43.062;25.626;2022-08-04T18:52:06;6.90;;;2.60;;
28682;SDS011;15862;43.062;25.626;2022-08-04T18:54:31;6.00;;;2.70;;
28682;SDS011;15862;43.062;25.626;2022-08-04T18:56:56;4.30;;;3.05;;
28682;SDS011;15862;43.062;25.626;2022-08-04T18:59:22;3.25;;;2.33;;
28682;SDS011;15862;43.062;25.626;2022-08-04T19:01:47;5.93;;;2.97;;
28682;SDS011;15862;43.062;25.626;2022-08-04T19:04:13;13.70;;;3.58;;
28682;SDS011;15862;43.062;25.626;2022-08-04T19:06:40;4.68;;;2.85;;
28682;SDS011;15862;43.062;25.626;2022-08-04T19:09:06;6.22;;;2.60;;
28682;SDS011;15862;43.062;25.626;2022-08-04T19:11:32;10.60;;;3.10;;
28682;SDS011;15862;43.062;25.626;2022-08-04T19:13:58;4.55;;;3.20;;
28682;SDS011;15862;43.062;25.626;2022-08-04T19:16:25;11.30;;;2.92;;
28682;SDS011;15862;43.062;25.626;2022-08-04T19:18:52;5.53;;;2.75;;
28682;SDS011;15862;43.062;25.626;2022-08-04T19:21:18;3.67;;;3.00;;
28682;SDS011;15862;43.062;25.626;2022-08-04T19:23:44;8.00;;;2.67;;
28682;SDS011;15862;43.062;25.626;2022-08-04T19:26:09;9.65;;;3.78;;
28682;SDS011;15862;43.062;25.626;2022-08-04T19:28:35;5.90;;;2.72;;
28682;SDS011;15862;43.062;25.626;2022-08-04T19:31:01;5.72;;;2.92;;
28682;SDS011;15862;43.062;25.626;2022-08-04T19:33:28;5.15;;;2.90;;
28682;SDS011;15862;43.062;25.626;2022-08-04T19:35:54;4.35;;;2.95;;
28682;SDS011;15862;43.062;25.626;2022-08-04T19:38:20;4.72;;;3.30;;
28682;SDS011;15862;43.062;25.626;2022-08-04T19:40:45;5.30;;;3.20;;
28682;SDS011;15862;43.062;25.626;2022-08-04T19:43:11;10.38;;;3.20;;
28682;SDS011;15862;43.062;25.626;2022-08-04T19:45:37;11.20;;;3.72;;
28682;SDS011;15862;43.062;25.626;2022-08-04T19:48:03;5.75;;;3.25;;
28682;SDS011;15862;43.062;25.626;2022-08-04T19:50:30;6.03;;;3.50;;
28682;SDS011;15862;43.062;25.626;2022-08-04T19:52:56;2.55;;;2.35;;
28682;SDS011;15862;43.062;25.626;2022-08-04T19:55:22;4.47;;;3.10;;
28682;SDS011;15862;43.062;25.626;2022-08-04T19:57:48;3.05;;;2.80;;
28682;SDS011;15862;43.062;25.626;2022-08-04T20:00:15;7.07;;;3.35;;
28682;SDS011;15862;43.062;25.626;2022-08-04T20:02:42;5.60;;;3.72;;
28682;SDS011;15862;43.062;25.626;2022-08-04T20:05:08;3.80;;;3.33;;
28682;SDS011;15862;43.062;25.626;2022-08-04T20:07:34;5.53;;;3.75;;
28682;SDS011;15862;43.062;25.626;2022-08-04T20:10:00;6.70;;;3.42;;
28682;SDS011;15862;43.062;25.626;2022-08-04T20:12:26;5.97;;;3.42;;
28682;SDS011;15862;43.062;25.626;2022-08-04T20:14:51;3.85;;;3.22;;
28682;SDS011;15862;43.062;25.626;2022-08-04T20:17:16;6.00;;;3.13;;
28682;SDS011;15862;43.062;25.626;2022-08-04T20:19:42;8.20;;;3.10;;
28682;SDS011;15862;43.062;25.626;2022-08-04T20:22:07;9.65;;;3.30;;
28682;SDS011;15862;43.062;25.626;2022-08-04T20:24:33;9.80;;;3.40;;
28682;SDS011;15862;43.062;25.626;2022-08-04T20:26:58;8.35;;;3.22;;
28682;SDS011;15862;43.062;25.626;2022-08-04T20:29:24;9.27;;;3.83;;
28682;SDS011;15862;43.062;25.626;2022-08-04T20:31:49;7.28;;;4.00;;
28682;SDS011;15862;43.062;25.626;2022-08-04T20:34:15;8.95;;;4.18;;